Time;durP1;ratioP1;P1;durP2;ratioP2;P2;SDS_P1;SDS_P2;PMS_P1;PMS_P2;Temp;Humidity;BMP_temperature;BMP_pressure;BME280_temperature;BME280_humidity;BME280_pressure;Samples;Min_cycle;Max_cycle;Signal;HPM_P1;HPM_P2
2021/06/02 00:02:08;;;;;;;3.03;2.40;;;12.60;90.40;;;;;;5089943;28;20771;-67
2021/06/02 00:04:43;;;;;;;2.50;2.20;;;12.50;90.50;;;;;;5090938;28;20443;-67
2021/06/02 00:07:11;;;;;;;2.10;1.90;;;12.30;91.10;;;;;;5090659;28;21019;-67
2021/06/02 00:09:39;;;;;;;4.60;2.23;;;12.20;91.00;;;;;;5091046;28;20432;-67
2021/06/02 00:12:08;;;;;;;2.83;2.10;;;12.10;91.90;;;;;;5091055;28;20417;-67
2021/06/02 00:14:36;;;;;;;6.80;2.60;;;12.00;93.50;;;;;;5090817;28;20487;-66
2021/06/02 00:17:03;;;;;;;3.70;2.47;;;12.00;95.20;;;;;;5090632;28;20489;-67
2021/06/02 00:19:31;;;;;;;3.90;2.57;;;11.90;96.50;;;;;;5090866;28;20447;-66
2021/06/02 00:22:00;;;;;;;4.43;2.17;;;11.80;95.90;;;;;;5090859;28;20923;-66
2021/06/02 00:24:28;;;;;;;3.07;2.87;;;11.80;96.30;;;;;;5090722;28;20441;-66
2021/06/02 00:26:56;;;;;;;2.17;2.00;;;11.70;96.90;;;;;;5090624;28;20458;-67
2021/06/02 00:29:26;;;;;;;2.57;2.37;;;11.50;97.60;;;;;;5090724;28;20445;-67
2021/06/02 00:31:53;;;;;;;2.53;2.20;;;11.50;98.80;;;;;;5090824;28;20428;-67
2021/06/02 00:34:21;;;;;;;3.40;2.40;;;11.40;98.20;;;;;;5090641;28;20446;-67
2021/06/02 00:36:48;;;;;;;3.33;2.53;;;11.30;99.40;;;;;;5093288;28;20566;-66
2021/06/02 00:39:17;;;;;;;3.30;2.40;;;11.30;99.90;;;;;;5094483;28;20445;-67
2021/06/02 00:41:45;;;;;;;7.03;2.80;;;11.30;99.90;;;;;;5095048;28;20517;-66
2021/06/02 00:44:14;;;;;;;5.07;2.53;;;11.30;99.90;;;;;;5094730;28;20477;-66
2021/06/02 00:46:42;;;;;;;4.50;3.90;;;11.20;99.90;;;;;;5094400;28;20463;-67
2021/06/02 00:49:11;;;;;;;3.00;2.30;;;11.00;99.90;;;;;;5094832;28;20447;-66
2021/06/02 00:51:38;;;;;;;7.90;2.90;;;11.00;99.90;;;;;;5094658;28;20427;-67
2021/06/02 00:54:07;;;;;;;2.70;2.20;;;10.80;99.90;;;;;;5094320;28;20469;-67
2021/06/02 00:56:39;;;;;;;3.10;2.20;;;10.80;99.90;;;;;;5094386;28;20836;-67
2021/06/02 00:59:08;;;;;;;5.80;2.33;;;10.80;99.90;;;;;;5094534;28;20432;-67
2021/06/02 01:01:35;;;;;;;7.73;2.20;;;10.80;99.90;;;;;;5094744;28;20431;-67
2021/06/02 01:04:03;;;;;;;3.30;2.57;;;10.70;99.90;;;;;;5091882;28;20935;-67
2021/06/02 01:06:33;;;;;;;3.10;2.43;;;10.70;99.90;;;;;;5094008;28;20459;-67
2021/06/02 01:09:06;;;;;;;4.23;2.47;;;10.60;99.90;;;;;;5093846;28;20433;-67
2021/06/02 01:11:34;;;;;;;3.90;3.03;;;10.60;99.90;;;;;;5094189;28;20527;-66
2021/06/02 01:14:04;;;;;;;4.93;3.00;;;10.60;99.90;;;;;;5094123;28;20473;-66
2021/06/02 01:16:32;;;;;;;4.87;3.83;;;10.60;99.90;;;;;;5093952;28;20577;-66
2021/06/02 01:19:00;;;;;;;3.30;3.00;;;10.50;99.90;;;;;;5094050;28;20428;-67
2021/06/02 01:21:29;;;;;;;4.67;3.00;;;10.50;99.90;;;;;;5094062;28;20952;-66
2021/06/02 01:24:00;;;;;;;5.27;3.10;;;10.50;99.90;;;;;;5093764;28;20437;-66
2021/06/02 01:26:29;;;;;;;4.53;2.80;;;10.50;99.90;;;;;;5093767;28;20445;-66
2021/06/02 01:28:56;;;;;;;3.80;3.03;;;10.60;99.90;;;;;;5093996;28;20433;-67
2021/06/02 01:31:46;;;;;;;3.10;2.80;;;10.60;99.90;;;;;;5094099;28;20487;-66
2021/06/02 01:34:27;;;;;;;5.83;3.97;;;10.60;99.90;;;;;;5091222;28;20438;-66
2021/06/02 01:37:15;;;;;;;12.83;3.70;;;10.50;99.90;;;;;;5093475;28;20520;-66
2021/06/02 01:40:20;;;;;;;6.50;3.67;;;10.50;99.90;;;;;;5093497;28;20450;-66
2021/06/02 01:42:58;;;;;;;5.20;2.77;;;10.50;99.90;;;;;;5086889;28;20793;-66
2021/06/02 01:45:51;;;;;;;4.73;3.63;;;10.40;99.90;;;;;;5093598;28;20445;-66
2021/06/02 01:48:36;;;;;;;4.20;3.27;;;10.30;99.90;;;;;;5093108;28;20457;-66
2021/06/02 01:51:27;;;;;;;4.23;2.67;;;10.30;99.90;;;;;;5093547;28;20430;-66
2021/06/02 01:54:26;;;;;;;9.07;4.30;;;10.30;99.90;;;;;;5093213;28;20812;-67
2021/06/02 01:57:34;;;;;;;4.80;3.90;;;10.20;99.90;;;;;;5093196;28;20447;-67
2021/06/02 02:00:30;;;;;;;4.70;4.00;;;10.10;99.90;;;;;;5050429;28;20435;-66
2021/06/02 02:03:37;;;;;;;3.67;3.13;;;10.00;99.90;;;;;;5050518;28;20447;-66
2021/06/02 02:06:44;;;;;;;7.10;3.90;;;9.90;99.90;;;;;;5091813;28;20441;-66
2021/06/02 02:09:19;;;;;;;4.10;3.00;;;9.80;99.90;;;;;;5069450;28;20442;-67
2021/06/02 02:11:46;;;;;;;2.90;2.60;;;9.80;99.90;;;;;;5092976;28;20903;-67
2021/06/02 02:14:58;;;;;;;3.80;3.17;;;9.70;99.90;;;;;;5092889;28;21002;-66
2021/06/02 02:18:11;;;;;;;5.57;3.30;;;9.70;99.90;;;;;;5056188;28;20453;-67
2021/06/02 02:20:42;;;;;;;5.13;3.20;;;9.70;99.90;;;;;;5030427;28;20430;-67
2021/06/02 02:23:36;;;;;;;6.70;3.37;;;9.70;99.90;;;;;;5030191;28;20453;-67
2021/06/02 02:26:17;;;;;;;3.40;3.10;;;9.60;99.90;;;;;;5071028;28;20474;-67
2021/06/02 02:28:53;;;;;;;3.47;2.50;;;9.60;99.90;;;;;;5093021;28;20937;-67
2021/06/02 02:31:46;;;;;;;3.47;3.17;;;9.60;99.90;;;;;;5092880;28;21074;-66
2021/06/02 02:34:35;;;;;;;4.13;3.07;;;9.60;99.90;;;;;;5084697;28;20433;-67
2021/06/02 02:37:05;;;;;;;9.23;3.50;;;9.60;99.90;;;;;;5089667;28;21234;-67
2021/06/02 02:39:41;;;;;;;8.00;3.03;;;9.60;99.90;;;;;;5092308;28;20425;-67
2021/06/02 02:42:17;;;;;;;5.27;2.90;;;9.60;99.90;;;;;;5092567;28;20936;-67
2021/06/02 02:45:09;;;;;;;3.80;2.77;;;9.60;99.90;;;;;;5092333;28;20995;-67
2021/06/02 02:47:44;;;;;;;4.63;4.13;;;9.50;99.90;;;;;;5092219;28;20494;-67
2021/06/02 02:50:20;;;;;;;5.20;3.10;;;9.50;99.90;;;;;;5092414;28;20441;-66
2021/06/02 02:53:01;;;;;;;4.93;3.27;;;9.40;99.90;;;;;;5092449;28;20456;-67
2021/06/02 02:55:31;;;;;;;4.63;3.30;;;9.30;99.90;;;;;;5092149;28;20504;-66
2021/06/02 02:58:05;;;;;;;3.80;3.07;;;9.30;99.90;;;;;;5091608;28;20468;-66
2021/06/02 03:00:36;;;;;;;3.27;2.97;;;9.20;99.90;;;;;;5091992;28;20443;-66
2021/06/02 03:03:12;;;;;;;3.37;3.07;;;9.20;99.90;;;;;;5090307;28;20477;-66
2021/06/02 03:05:52;;;;;;;4.90;3.37;;;9.20;99.90;;;;;;5091101;28;20790;-66
2021/06/02 03:08:23;;;;;;;4.20;3.80;;;9.20;99.90;;;;;;5091832;28;20460;-65
2021/06/02 03:11:01;;;;;;;6.20;3.77;;;9.20;99.90;;;;;;5091581;28;20834;-66
2021/06/02 03:13:33;;;;;;;3.63;3.33;;;9.20;99.90;;;;;;5091852;28;20424;-66
2021/06/02 03:16:06;;;;;;;3.53;3.20;;;9.00;99.90;;;;;;5091666;28;20464;-66
2021/06/02 03:18:39;;;;;;;4.93;3.40;;;8.90;99.90;;;;;;5091985;28;20467;-66
2021/06/02 03:21:29;;;;;;;3.97;3.57;;;8.80;99.90;;;;;;5089856;28;20504;-66
2021/06/02 03:24:18;;;;;;;11.03;4.17;;;8.80;99.90;;;;;;5080833;28;20450;-66
2021/06/02 03:29:32;;;;;;;4.33;3.73;;;8.90;99.90;;;;;;5936268;22;20492;-67
2021/06/02 03:32:05;;;;;;;5.03;3.60;;;8.90;99.90;;;;;;5081505;28;20503;-66
2021/06/02 03:34:42;;;;;;;5.83;3.57;;;8.80;99.90;;;;;;5071355;28;20430;-67
2021/06/02 03:37:27;;;;;;;3.50;3.13;;;8.80;99.90;;;;;;5070548;28;20987;-67
2021/06/02 03:40:06;;;;;;;5.20;3.30;;;8.80;99.90;;;;;;5084243;28;20493;-67
2021/06/02 03:42:42;;;;;;;7.73;3.57;;;8.80;99.90;;;;;;5092221;28;20432;-67
2021/06/02 03:45:24;;;;;;;4.00;3.60;;;8.70;99.90;;;;;;5092315;28;20430;-68
2021/06/02 03:47:58;;;;;;;13.70;3.93;;;8.70;99.90;;;;;;5092320;28;20433;-67
2021/06/02 03:50:28;;;;;;;3.93;3.57;;;8.70;99.90;;;;;;5092123;28;20862;-66
2021/06/02 03:53:19;;;;;;;5.90;3.00;;;8.70;99.90;;;;;;5083670;28;20453;-68
2021/06/02 03:55:56;;;;;;;5.03;3.70;;;8.70;99.90;;;;;;5087890;28;20485;-69
2021/06/02 03:58:44;;;;;;;6.87;3.90;;;8.70;99.90;;;;;;5092000;28;20442;-68
2021/06/02 04:01:25;;;;;;;6.13;4.07;;;8.70;99.90;;;;;;5091720;28;20435;-68
2021/06/02 04:04:03;;;;;;;5.57;4.37;;;8.70;99.90;;;;;;5075243;28;20751;-68
2021/06/02 04:06:38;;;;;;;8.63;4.63;;;8.70;99.90;;;;;;5071808;28;20550;-68
2021/06/02 04:09:12;;;;;;;6.77;5.03;;;8.70;99.90;;;;;;5087671;28;20444;-69
2021/06/02 04:11:47;;;;;;;7.17;4.20;;;8.70;99.90;;;;;;5078520;28;20831;-69
2021/06/02 04:14:30;;;;;;;5.43;4.30;;;8.80;99.90;;;;;;5091603;28;20437;-70
2021/06/02 04:16:58;;;;;;;7.43;4.07;;;8.80;99.90;;;;;;5091829;28;20469;-69
2021/06/02 04:19:27;;;;;;;8.90;4.13;;;8.80;99.90;;;;;;5091814;28;20478;-69
2021/06/02 04:22:00;;;;;;;4.50;3.90;;;8.80;99.90;;;;;;5091943;28;20422;-69
2021/06/02 04:24:30;;;;;;;4.27;3.87;;;8.90;99.90;;;;;;5091835;28;20813;-68
2021/06/02 04:26:58;;;;;;;5.63;4.10;;;8.90;99.90;;;;;;5091678;28;20551;-69
2021/06/02 04:29:26;;;;;;;4.57;3.93;;;9.00;99.90;;;;;;5091388;28;20423;-69
2021/06/02 04:31:56;;;;;;;6.23;3.33;;;9.10;99.90;;;;;;5091179;28;20441;-69
2021/06/02 04:34:24;;;;;;;4.63;4.17;;;9.20;99.90;;;;;;5071639;28;20442;-69
2021/06/02 04:36:52;;;;;;;6.03;4.40;;;9.30;99.90;;;;;;5071426;28;20838;-70
2021/06/02 04:39:20;;;;;;;4.27;3.87;;;9.40;99.90;;;;;;5071639;28;20575;-68
2021/06/02 04:41:48;;;;;;;7.23;3.63;;;9.40;99.90;;;;;;5071546;28;20774;-69
2021/06/02 04:44:16;;;;;;;8.20;3.83;;;9.50;99.90;;;;;;5071432;28;20426;-69
2021/06/02 04:46:46;;;;;;;5.53;3.90;;;9.60;99.90;;;;;;5071377;28;20455;-69
2021/06/02 04:49:14;;;;;;;4.13;3.73;;;9.60;99.90;;;;;;5071678;28;20424;-71
2021/06/02 04:52:05;;;;;;;5.20;4.20;;;9.70;99.90;;;;;;5087830;28;20429;-72
2021/06/02 04:55:09;;;;;;;5.50;4.13;;;9.80;99.90;;;;;;5077474;28;20476;-71
2021/06/02 04:58:23;;;;;;;6.03;4.63;;;9.90;99.90;;;;;;5091411;28;20491;-71
2021/06/02 05:01:19;;;;;;;4.30;3.90;;;10.10;99.90;;;;;;5091202;28;20447;-71
2021/06/02 05:04:43;;;;;;;4.10;3.70;;;10.30;99.90;;;;;;5087399;28;20431;-71
2021/06/02 05:07:58;;;;;;;5.83;4.07;;;10.40;99.90;;;;;;5091501;28;20460;-68
2021/06/02 05:11:04;;;;;;;4.47;3.90;;;10.50;99.90;;;;;;5078145;28;20906;-68
2021/06/02 05:14:08;;;;;;;7.33;4.13;;;10.70;99.90;;;;;;5089979;28;20422;-69
2021/06/02 05:17:06;;;;;;;4.53;4.10;;;10.90;99.90;;;;;;5070960;28;20558;-69
2021/06/02 05:20:16;;;;;;;4.27;3.53;;;11.10;99.90;;;;;;5037163;28;20452;-69
2021/06/02 05:23:22;;;;;;;3.83;3.40;;;11.20;99.90;;;;;;5073756;28;20433;-69
2021/06/02 05:26:43;;;;;;;5.27;4.77;;;11.20;99.90;;;;;;5074280;28;21021;-69
2021/06/02 05:29:54;;;;;;;5.93;4.10;;;11.30;99.90;;;;;;5056501;28;20993;-69
2021/06/02 05:32:48;;;;;;;4.53;3.60;;;11.50;99.90;;;;;;5003113;28;20513;-69
2021/06/02 05:35:49;;;;;;;7.57;4.43;;;11.60;99.90;;;;;;5094667;28;20964;-69
2021/06/02 05:38:48;;;;;;;15.10;7.60;;;11.80;99.90;;;;;;5094104;28;20436;-70
2021/06/02 05:41:33;;;;;;;6.53;4.87;;;12.00;99.90;;;;;;5074690;28;20524;-69
2021/06/02 05:44:33;;;;;;;7.50;3.87;;;12.10;99.90;;;;;;5093307;28;20443;-69
2021/06/02 05:47:45;;;;;;;5.90;3.70;;;12.30;99.90;;;;;;5089870;28;20449;-69
2021/06/02 05:50:32;;;;;;;4.37;3.93;;;12.50;99.90;;;;;;5074103;28;20429;-69
2021/06/02 05:53:48;;;;;;;4.00;3.60;;;12.70;99.90;;;;;;5074464;28;20422;-71
2021/06/02 05:56:55;;;;;;;5.87;3.77;;;12.80;99.90;;;;;;4992463;28;20487;-69
2021/06/02 05:59:52;;;;;;;5.60;3.93;;;12.90;99.90;;;;;;4996204;28;20457;-69
2021/06/02 06:02:52;;;;;;;4.07;3.60;;;13.00;99.90;;;;;;5063817;28;20429;-69
2021/06/02 06:05:31;;;;;;;6.53;3.40;;;13.10;99.90;;;;;;5094405;28;20432;-68
2021/06/02 06:08:59;;;;;;;6.23;3.87;;;13.20;99.90;;;;;;5094292;28;20456;-69
2021/06/02 06:12:07;;;;;;;5.83;3.87;;;13.30;99.90;;;;;;4992522;28;20417;-68
2021/06/02 06:14:56;;;;;;;3.23;2.90;;;13.40;99.90;;;;;;4986325;28;20461;-69
2021/06/02 06:17:35;;;;;;;4.60;3.10;;;13.50;99.90;;;;;;5081709;28;20514;-69
2021/06/02 06:20:31;;;;;;;6.67;3.80;;;13.60;99.90;;;;;;5091224;28;20862;-69
2021/06/02 06:23:29;;;;;;;3.93;3.50;;;13.70;99.90;;;;;;5073493;28;20487;-70
2021/06/02 06:26:03;;;;;;;3.40;3.03;;;13.90;99.90;;;;;;5070118;28;20524;-70
2021/06/02 06:28:36;;;;;;;3.70;3.10;;;14.00;99.90;;;;;;5073103;28;20438;-69
2021/06/02 06:31:09;;;;;;;3.80;3.03;;;14.20;99.90;;;;;;5091217;28;20448;-68
2021/06/02 06:33:39;;;;;;;6.50;3.47;;;14.30;99.90;;;;;;5081178;28;20517;-69
2021/06/02 06:36:07;;;;;;;3.37;3.07;;;14.40;99.90;;;;;;5073469;28;20898;-69
2021/06/02 06:38:59;;;;;;;5.53;3.10;;;14.50;99.90;;;;;;5074277;28;20446;-70
2021/06/02 06:41:31;;;;;;;4.97;3.27;;;14.60;99.90;;;;;;5093522;28;20429;-68
2021/06/02 06:43:58;;;;;;;3.43;2.80;;;14.80;99.90;;;;;;5093516;28;20487;-68
2021/06/02 06:46:27;;;;;;;3.73;3.37;;;14.90;99.90;;;;;;5093185;28;20429;-69
2021/06/02 06:48:59;;;;;;;3.90;2.60;;;15.00;99.90;;;;;;5093363;28;20432;-69
2021/06/02 06:51:28;;;;;;;3.57;3.27;;;15.10;99.90;;;;;;5093235;28;20425;-69
2021/06/02 06:53:58;;;;;;;5.47;3.73;;;15.20;99.90;;;;;;5093316;28;20430;-68
2021/06/02 06:56:27;;;;;;;4.93;3.20;;;15.40;99.90;;;;;;5093119;28;20475;-70
2021/06/02 06:58:54;;;;;;;4.13;2.90;;;15.50;99.90;;;;;;5093132;28;20425;-69
2021/06/02 07:01:21;;;;;;;6.50;3.03;;;15.60;99.90;;;;;;5092683;28;20558;-70
2021/06/02 07:03:48;;;;;;;3.83;3.13;;;15.70;99.90;;;;;;5076790;28;20426;-69
2021/06/02 07:06:17;;;;;;;3.57;2.83;;;15.80;99.90;;;;;;5072647;28;20446;-69
2021/06/02 07:08:45;;;;;;;4.00;3.10;;;15.90;99.90;;;;;;5072695;28;20450;-68
2021/06/02 07:11:17;;;;;;;5.20;4.30;;;16.00;99.90;;;;;;5085099;28;20793;-69
2021/06/02 07:13:46;;;;;;;4.20;3.17;;;16.10;99.90;;;;;;5092926;28;20940;-69
2021/06/02 07:16:14;;;;;;;3.87;3.53;;;16.20;99.90;;;;;;5092480;28;20471;-68
2021/06/02 07:18:44;;;;;;;8.43;3.20;;;16.30;99.90;;;;;;5092727;28;20441;-68
2021/06/02 07:21:12;;;;;;;4.40;3.50;;;16.30;99.90;;;;;;5091886;28;20520;-68
2021/06/02 07:23:39;;;;;;;10.43;3.00;;;16.40;99.90;;;;;;5085757;28;20961;-68
2021/06/02 07:26:06;;;;;;;2.73;2.53;;;16.50;99.90;;;;;;5072491;28;20426;-68
2021/06/02 07:28:38;;;;;;;8.23;3.50;;;16.50;99.90;;;;;;5072236;28;20430;-68
2021/06/02 07:31:06;;;;;;;7.23;3.30;;;16.60;99.90;;;;;;5072015;28;20832;-68
2021/06/02 07:33:33;;;;;;;4.90;3.33;;;16.70;99.90;;;;;;5072312;28;20441;-68
2021/06/02 07:36:01;;;;;;;3.27;2.97;;;16.70;99.90;;;;;;5072179;28;20484;-68
2021/06/02 07:38:28;;;;;;;3.70;3.40;;;16.80;99.90;;;;;;5072108;28;20457;-68
2021/06/02 07:40:54;;;;;;;4.33;2.70;;;16.90;99.90;;;;;;5072400;28;20426;-68
2021/06/02 07:43:21;;;;;;;3.30;3.00;;;17.00;99.90;;;;;;5072099;28;20430;-68
2021/06/02 07:45:49;;;;;;;4.07;3.07;;;17.10;99.90;;;;;;5071519;28;20438;-68
2021/06/02 07:48:16;;;;;;;6.20;3.17;;;17.30;99.90;;;;;;5071903;28;20950;-69
2021/06/02 07:50:43;;;;;;;8.53;3.00;;;17.40;99.90;;;;;;5076308;28;20474;-67
2021/06/02 07:53:10;;;;;;;5.73;2.93;;;17.50;99.90;;;;;;5089271;28;20473;-68
2021/06/02 07:55:37;;;;;;;3.50;2.80;;;17.60;99.90;;;;;;5072138;28;20470;-68
2021/06/02 07:58:04;;;;;;;7.03;2.67;;;17.80;99.90;;;;;;5072014;28;20468;-68
2021/06/02 08:00:31;;;;;;;5.93;3.40;;;17.90;99.90;;;;;;5071720;28;20809;-68
2021/06/02 08:02:59;;;;;;;4.40;3.13;;;18.00;99.90;;;;;;5072023;28;20933;-68
2021/06/02 08:05:26;;;;;;;6.47;3.20;;;18.10;99.90;;;;;;5071966;28;20772;-68
2021/06/02 08:07:53;;;;;;;3.10;2.80;;;18.10;99.90;;;;;;5071870;28;20442;-67
2021/06/02 08:10:19;;;;;;;5.10;3.83;;;18.30;99.90;;;;;;5071569;28;20437;-67
2021/06/02 08:12:47;;;;;;;3.87;3.37;;;18.50;99.90;;;;;;5071996;28;20442;-67
2021/06/02 08:15:15;;;;;;;4.87;3.10;;;18.50;99.90;;;;;;5071590;28;20917;-68
2021/06/02 08:17:43;;;;;;;4.73;2.97;;;18.50;99.90;;;;;;5075713;28;20456;-67
2021/06/02 08:20:13;;;;;;;4.30;2.77;;;18.50;99.90;;;;;;5080177;28;20489;-68
2021/06/02 08:22:40;;;;;;;3.03;2.73;;;18.60;99.90;;;;;;5086796;28;20459;-69
2021/06/02 08:25:10;;;;;;;3.20;2.77;;;18.70;99.90;;;;;;5091836;28;20443;-68
2021/06/02 08:27:37;;;;;;;3.50;2.93;;;18.80;99.90;;;;;;5085933;28;20513;-67
2021/06/02 08:30:06;;;;;;;4.77;2.90;;;19.00;99.90;;;;;;5087779;28;20528;-67
2021/06/02 08:32:33;;;;;;;3.20;2.83;;;19.10;99.90;;;;;;5071492;28;20422;-68
2021/06/02 08:34:59;;;;;;;6.10;2.60;;;19.30;99.90;;;;;;5071721;28;20452;-69
2021/06/02 08:37:29;;;;;;;4.40;2.60;;;19.40;99.90;;;;;;5073439;28;20486;-67
2021/06/02 08:39:56;;;;;;;3.07;2.87;;;19.40;99.90;;;;;;5091427;28;20425;-67
2021/06/02 08:42:22;;;;;;;5.37;4.40;;;19.50;99.90;;;;;;5091886;28;20446;-68
2021/06/02 08:44:49;;;;;;;3.83;2.80;;;19.60;99.90;;;;;;5091621;28;20433;-67
2021/06/02 08:47:16;;;;;;;3.83;2.80;;;19.70;99.90;;;;;;5091705;28;20460;-68
2021/06/02 08:49:43;;;;;;;3.40;3.10;;;19.80;99.90;;;;;;5091432;28;20451;-67
2021/06/02 08:52:10;;;;;;;3.40;3.03;;;19.70;99.90;;;;;;5091743;28;20821;-68
2021/06/02 08:54:38;;;;;;;3.33;3.03;;;19.80;99.90;;;;;;5091367;28;20842;-67
2021/06/02 08:57:08;;;;;;;2.90;2.50;;;19.90;99.90;;;;;;5093093;28;20480;-67
2021/06/02 08:59:38;;;;;;;2.90;2.60;;;20.00;99.90;;;;;;5094437;28;20436;-68
2021/06/02 09:02:06;;;;;;;3.10;2.70;;;20.10;99.90;;;;;;5085252;28;20787;-68
2021/06/02 09:04:34;;;;;;;3.77;3.00;;;20.20;99.90;;;;;;5075025;28;20448;-69
2021/06/02 09:07:04;;;;;;;5.73;3.30;;;20.30;99.90;;;;;;5075464;28;20457;-67
2021/06/02 09:09:31;;;;;;;3.43;3.13;;;20.40;99.90;;;;;;5075158;28;20425;-68
2021/06/02 09:12:04;;;;;;;7.93;2.87;;;20.50;99.90;;;;;;5075281;28;20426;-67
2021/06/02 09:14:33;;;;;;;5.60;2.70;;;20.40;99.90;;;;;;5074917;28;20806;-68
2021/06/02 09:17:02;;;;;;;6.73;2.90;;;20.50;99.90;;;;;;5074962;28;20548;-68
2021/06/02 09:19:33;;;;;;;2.97;2.50;;;20.60;99.90;;;;;;5074639;28;20456;-68
2021/06/02 09:22:01;;;;;;;7.97;2.70;;;20.50;99.90;;;;;;5074698;28;20438;-68
2021/06/02 09:24:50;;;;;;;5.97;3.50;;;20.50;99.90;;;;;;5074341;28;20427;-69
2021/06/02 09:27:39;;;;;;;2.90;2.60;;;20.70;99.90;;;;;;5074630;28;20476;-68
2021/06/02 09:30:08;;;;;;;2.70;2.40;;;20.80;99.90;;;;;;5087515;28;20452;-68
2021/06/02 09:32:42;;;;;;;4.93;2.80;;;20.90;99.90;;;;;;5088387;28;20446;-67
2021/06/02 09:35:10;;;;;;;5.80;2.77;;;20.90;99.90;;;;;;5093865;28;20884;-67
2021/06/02 09:37:51;;;;;;;2.77;2.20;;;20.90;99.90;;;;;;5094743;28;20456;-68
2021/06/02 09:40:27;;;;;;;5.73;2.90;;;21.00;99.90;;;;;;5094340;28;20928;-68
2021/06/02 09:42:56;;;;;;;3.27;2.43;;;21.00;99.60;;;;;;5094688;28;20436;-68
2021/06/02 09:45:23;;;;;;;2.43;2.10;;;20.90;99.90;;;;;;5094547;28;20429;-67
2021/06/02 09:47:51;;;;;;;4.97;2.77;;;20.90;99.90;;;;;;5094482;28;20461;-67
2021/06/02 09:50:25;;;;;;;4.13;2.20;;;21.00;99.90;;;;;;5094182;28;20765;-67
2021/06/02 09:52:53;;;;;;;3.50;2.27;;;21.10;99.90;;;;;;5094437;28;20413;-68
2021/06/02 09:55:22;;;;;;;3.50;2.50;;;21.40;99.90;;;;;;5094380;28;20429;-68
2021/06/02 09:58:12;;;;;;;4.70;2.80;;;21.60;99.10;;;;;;5093544;28;21036;-67
2021/06/02 10:00:40;;;;;;;3.03;2.70;;;21.80;99.40;;;;;;5074288;28;20511;-67
2021/06/02 10:03:10;;;;;;;4.20;2.70;;;21.80;99.60;;;;;;5074309;28;20422;-67
2021/06/02 10:05:38;;;;;;;3.13;2.20;;;22.00;99.90;;;;;;5074277;28;20437;-67
2021/06/02 10:08:06;;;;;;;3.93;2.43;;;22.10;99.80;;;;;;5073233;28;20452;-67
2021/06/02 10:10:33;;;;;;;2.70;2.50;;;22.20;99.90;;;;;;5073695;28;20514;-67
2021/06/02 10:13:04;;;;;;;4.63;2.37;;;22.40;99.90;;;;;;5073915;28;20448;-67
2021/06/02 10:15:33;;;;;;;4.40;2.30;;;22.50;98.50;;;;;;5074018;28;20462;-67
2021/06/02 10:18:00;;;;;;;8.03;2.30;;;22.50;99.30;;;;;;5073825;28;20450;-67
2021/06/02 10:20:28;;;;;;;2.30;2.10;;;22.70;97.70;;;;;;5073290;28;20422;-67
2021/06/02 10:22:56;;;;;;;5.50;2.63;;;22.80;97.40;;;;;;5073472;28;20445;-67
2021/06/02 10:25:24;;;;;;;2.23;1.97;;;22.90;97.70;;;;;;5073659;28;20482;-67
2021/06/02 10:27:54;;;;;;;2.70;2.50;;;22.80;94.70;;;;;;5074373;28;20556;-67
2021/06/02 10:30:23;;;;;;;7.13;2.80;;;22.50;96.10;;;;;;5090867;28;20524;-67
2021/06/02 10:32:52;;;;;;;3.40;2.43;;;22.70;99.20;;;;;;5085202;28;20464;-68
2021/06/02 10:35:19;;;;;;;2.43;2.00;;;23.00;97.60;;;;;;5093310;28;20443;-67
2021/06/02 10:37:46;;;;;;;3.10;2.20;;;23.10;97.10;;;;;;5093646;28;20457;-69
2021/06/02 10:40:20;;;;;;;3.70;2.60;;;23.20;98.80;;;;;;5093167;28;20520;-67
2021/06/02 10:42:57;;;;;;;2.53;2.27;;;23.30;98.40;;;;;;5093669;28;20473;-67
2021/06/02 10:45:29;;;;;;;2.90;2.70;;;23.40;98.80;;;;;;5093749;28;20936;-67
2021/06/02 10:47:57;;;;;;;2.83;2.30;;;23.70;97.10;;;;;;5093339;28;20476;-67
2021/06/02 10:50:39;;;;;;;2.40;2.20;;;23.70;94.30;;;;;;5093100;28;20437;-67
2021/06/02 10:53:24;;;;;;;3.57;1.73;;;23.80;93.50;;;;;;5093235;28;20489;-68
2021/06/02 10:55:51;;;;;;;3.23;2.23;;;23.90;93.50;;;;;;5093099;28;20495;-68
2021/06/02 10:58:20;;;;;;;3.30;2.00;;;23.70;91.90;;;;;;5089183;28;20442;-67
2021/06/02 11:00:50;;;;;;;2.17;1.87;;;23.60;92.20;;;;;;5072995;28;20428;-67
2021/06/02 11:03:25;;;;;;;2.53;1.90;;;23.70;91.40;;;;;;5072962;28;20921;-67
2021/06/02 11:06:32;;;;;;;2.07;1.87;;;24.00;92.90;;;;;;5072856;28;20425;-67
2021/06/02 11:09:23;;;;;;;2.43;1.97;;;24.10;89.10;;;;;;5072526;28;20429;-69
2021/06/02 11:12:05;;;;;;;4.33;2.43;;;23.90;90.10;;;;;;5072726;28;20825;-67
2021/06/02 11:14:31;;;;;;;2.50;2.30;;;23.70;89.90;;;;;;5072738;28;20434;-68
2021/06/02 11:17:09;;;;;;;2.70;2.50;;;23.90;91.40;;;;;;5072467;28;20888;-67
2021/06/02 11:19:38;;;;;;;1.80;1.70;;;24.00;89.80;;;;;;5071610;28;20487;-66
2021/06/02 11:22:07;;;;;;;3.53;1.90;;;24.00;90.50;;;;;;5072557;28;20444;-67
2021/06/02 11:24:45;;;;;;;3.60;2.73;;;24.30;91.50;;;;;;5072322;28;20422;-67
2021/06/02 11:27:37;;;;;;;2.63;2.43;;;24.40;90.30;;;;;;5084753;28;20467;-67
2021/06/02 11:30:18;;;;;;;2.83;2.00;;;24.60;89.20;;;;;;5080212;28;20468;-67
2021/06/02 11:33:04;;;;;;;3.77;3.00;;;24.80;87.00;;;;;;5084765;28;20445;-67
2021/06/02 11:35:58;;;;;;;2.53;2.33;;;24.80;88.60;;;;;;5075269;28;20497;-67
2021/06/02 11:38:26;;;;;;;2.20;2.00;;;25.00;84.50;;;;;;5080695;28;20484;-67
2021/06/02 11:40:54;;;;;;;4.07;2.13;;;25.00;83.60;;;;;;5089393;28;20441;-67
2021/06/02 11:43:21;;;;;;;5.67;2.13;;;25.10;82.30;;;;;;5092357;28;20505;-67
2021/06/02 11:45:49;;;;;;;3.33;1.60;;;25.20;87.50;;;;;;5092411;28;20512;-67
2021/06/02 11:48:29;;;;;;;4.07;1.83;;;25.50;88.90;;;;;;5091872;28;20535;-67
2021/06/02 11:50:59;;;;;;;2.83;1.70;;;25.80;88.00;;;;;;5092365;28;20955;-66
2021/06/02 11:53:38;;;;;;;3.10;1.93;;;26.00;88.00;;;;;;5091955;28;20429;-67
2021/06/02 11:56:11;;;;;;;3.40;2.40;;;26.10;89.60;;;;;;5092211;28;20472;-66
2021/06/02 11:58:38;;;;;;;3.73;1.97;;;25.50;79.10;;;;;;5091180;28;20493;-67
2021/06/02 12:01:05;;;;;;;1.90;1.70;;;25.10;89.50;;;;;;5081720;28;20795;-67
2021/06/02 12:03:33;;;;;;;2.30;2.10;;;24.90;89.90;;;;;;5071760;28;20475;-66
2021/06/02 12:06:00;;;;;;;4.63;1.57;;;24.80;85.70;;;;;;5071991;28;20452;-66
2021/06/02 12:08:27;;;;;;;1.97;1.80;;;25.20;85.20;;;;;;5071305;28;20540;-67
2021/06/02 12:10:55;;;;;;;1.83;1.40;;;25.60;80.20;;;;;;5071911;28;20430;-67
2021/06/02 12:13:23;;;;;;;1.93;1.83;;;25.70;76.20;;;;;;5071701;28;20445;-66
2021/06/02 12:15:53;;;;;;;2.10;1.90;;;25.70;80.90;;;;;;5071803;28;20472;-67
2021/06/02 12:18:36;;;;;;;2.67;2.10;;;25.90;74.70;;;;;;5071719;28;20454;-67
2021/06/02 12:21:11;;;;;;;3.83;1.70;;;26.00;76.30;;;;;;5071891;28;20440;-67
2021/06/02 12:23:48;;;;;;;5.73;1.60;;;26.10;76.80;;;;;;5071534;28;20844;-66
2021/06/02 12:26:26;;;;;;;2.40;1.63;;;26.20;77.20;;;;;;5088298;28;20424;-66
2021/06/02 12:28:53;;;;;;;3.97;1.80;;;26.30;75.00;;;;;;5071637;28;20436;-66
2021/06/02 12:31:35;;;;;;;2.70;2.43;;;26.60;74.20;;;;;;5073514;28;20450;-66
2021/06/02 12:34:06;;;;;;;1.73;1.63;;;27.00;74.90;;;;;;5075640;28;20434;-66
2021/06/02 12:36:34;;;;;;;6.53;1.83;;;27.20;70.00;;;;;;5085217;28;20841;-66
2021/06/02 12:39:09;;;;;;;2.80;1.83;;;27.30;76.30;;;;;;5080667;28;20450;-66
2021/06/02 12:41:36;;;;;;;4.30;1.70;;;27.60;74.10;;;;;;5095814;28;20444;-66
2021/06/02 12:44:04;;;;;;;3.67;1.80;;;28.00;70.90;;;;;;5095539;28;20452;-66
2021/06/02 12:46:32;;;;;;;2.30;1.70;;;27.70;70.50;;;;;;5095655;28;20531;-66
2021/06/02 12:49:01;;;;;;;1.50;1.40;;;27.40;70.20;;;;;;5095555;28;20425;-66
2021/06/02 12:51:29;;;;;;;2.97;1.70;;;26.90;70.60;;;;;;5095625;28;20532;-66
2021/06/02 12:53:55;;;;;;;2.83;2.00;;;26.50;72.50;;;;;;5095242;28;20445;-66
2021/06/02 12:56:23;;;;;;;1.90;1.37;;;26.20;72.00;;;;;;5095197;28;20476;-66
2021/06/02 12:58:55;;;;;;;1.57;1.47;;;26.50;71.90;;;;;;5095369;28;20483;-66
2021/06/02 13:01:28;;;;;;;1.50;1.33;;;27.00;71.80;;;;;;5095717;28;20469;-66
2021/06/02 13:03:57;;;;;;;2.10;1.90;;;27.10;70.30;;;;;;5095459;28;20520;-66
2021/06/02 13:06:25;;;;;;;2.60;1.57;;;27.60;73.30;;;;;;5095607;28;20436;-66
2021/06/02 13:08:54;;;;;;;2.60;1.30;;;28.00;72.20;;;;;;5095045;28;20440;-66
2021/06/02 13:11:25;;;;;;;1.80;1.63;;;28.40;69.20;;;;;;5095349;28;20802;-66
2021/06/02 13:13:53;;;;;;;1.63;1.53;;;28.30;69.80;;;;;;5095305;28;20441;-66
2021/06/02 13:16:21;;;;;;;2.23;1.80;;;28.60;68.80;;;;;;5095118;28;20473;-66
2021/06/02 13:18:59;;;;;;;4.17;1.90;;;28.60;65.00;;;;;;5095292;28;20921;-65
2021/06/02 13:21:30;;;;;;;2.70;1.87;;;29.00;67.20;;;;;;5095178;28;20458;-65
2021/06/02 13:24:16;;;;;;;2.27;1.20;;;29.30;67.20;;;;;;5094570;28;20448;-66
2021/06/02 13:26:47;;;;;;;2.23;1.60;;;29.40;68.50;;;;;;5087774;28;20796;-66
2021/06/02 13:29:14;;;;;;;1.93;1.73;;;29.40;67.40;;;;;;5073475;28;20440;-66
2021/06/02 13:31:42;;;;;;;2.00;1.70;;;28.50;64.60;;;;;;5074492;28;20552;-66
2021/06/02 13:34:09;;;;;;;2.10;1.90;;;27.90;65.40;;;;;;5094874;28;20535;-66
2021/06/02 13:36:40;;;;;;;2.93;2.07;;;27.70;72.30;;;;;;5094636;28;20561;-66